Wetterverlauf

Letzte Wetterlage 30.10.2014 13:30
Wetterdiagramm
Tabellarische Darstellung
Datum Temperatur Windchill Feuchte Luftdruck Windrichtung Windstärke Niederschlag
30.10.2014 13:30 10,5 °C 10,5 °C 95 % 1024,7 hPa 125 0.0 0,00 mm
30.10.2014 13:10 10,5 °C 10,5 °C 95 % 1024,7 hPa 135 0.6 0,30 mm
30.10.2014 13:00 10,5 °C 10,5 °C 95 % 1024,6 hPa 126 0.0 0,00 mm
30.10.2014 12:45 10,3 °C 10,3 °C 95 % 1024,7 hPa 133 0.0 0,00 mm
30.10.2014 12:30 10,3 °C 10,3 °C 96 % 1024,5 hPa 126 0.0 0,00 mm
30.10.2014 12:10 10,0 °C 10,0 °C 97 % 1024,6 hPa 90 0.6 0,30 mm
30.10.2014 12:00 9,7 °C 9,7 °C 98 % 1024,6 hPa 133 0.0 0,00 mm
30.10.2014 11:45 9,4 °C 9,4 °C 99 % 1024,7 hPa 120 0.0 0,00 mm
30.10.2014 11:30 9,2 °C 9,2 °C 99 % 1024,6 hPa 114 0.0 0,00 mm
30.10.2014 11:10 9,0 °C 9,0 °C 99 % 1024,7 hPa 135 0.0 0,30 mm
30.10.2014 11:00 8,9 °C 8,9 °C 99 % 1024,7 hPa 135 0.0 0,00 mm
30.10.2014 10:45 8,9 °C 8,9 °C 99 % 1024,7 hPa 136 0.0 0,00 mm
30.10.2014 10:30 8,7 °C 8,7 °C 99 % 1024,8 hPa 128 0.0 0,00 mm
30.10.2014 10:10 8,5 °C 8,5 °C 99 % 1024,7 hPa 135 0.0 0,30 mm
30.10.2014 10:00 8,4 °C 8,4 °C 99 % 1024,5 hPa 139 0.0 0,00 mm
30.10.2014 09:45 8,3 °C 8,3 °C 99 % 1024,5 hPa 135 0.0 0,00 mm
30.10.2014 09:30 8,3 °C 8,3 °C 99 % 1024,3 hPa 135 0.0 0,00 mm
30.10.2014 09:10 7,9 °C 7,9 °C 99 % 1024,1 hPa 135 0.0 0,30 mm
30.10.2014 09:00 7,9 °C 7,9 °C 99 % 1024,2 hPa 135 0.0 0,00 mm
30.10.2014 08:45 7,8 °C 7,8 °C 99 % 1024,1 hPa 97 0.0 0,00 mm
30.10.2014 08:30 7,5 °C 7,5 °C 99 % 1023,8 hPa 125 0.0 0,00 mm
30.10.2014 08:10 7,3 °C 7,3 °C 99 % 1023,6 hPa 180 0.0 0,30 mm
30.10.2014 08:00 7,2 °C 7,2 °C 99 % 1023,7 hPa 138 0.0 0,00 mm
30.10.2014 07:45 7,1 °C 7,1 °C 99 % 1023,6 hPa 126 0.0 0,00 mm
30.10.2014 07:30 7,0 °C 7,0 °C 99 % 1023,5 hPa 135 0.0 0,00 mm
Empfehlen Sie wetter.com
| Mehr
Neue Wetterwarnung

Neue Niederschlagsmeldung
Neue Meldung
Regen Liveticker
    sehr starker Regen/Gewitter
    starker Regen/Gewitter
    mäßiger bis starker Regen
    mäßiger Regen
    leichter bis mäßiger Regen
    kein Regen